createdAt,value
2022-11-07T00:00:21.171Z,12.13
2022-11-07T00:02:49.359Z,12.37
2022-11-07T00:05:17.715Z,11.63
2022-11-07T00:07:47.178Z,12.23
2022-11-07T00:10:15.368Z,11.53
2022-11-07T00:12:43.541Z,11.60
2022-11-07T00:15:12.414Z,11.67
2022-11-07T00:17:40.633Z,12.60
2022-11-07T00:20:09.744Z,11.30
2022-11-07T00:22:37.899Z,11.87
2022-11-07T00:25:08.696Z,12.60
2022-11-07T00:27:36.913Z,12.73
2022-11-07T00:30:06.077Z,12.53
2022-11-07T00:32:34.227Z,12.10
2022-11-07T00:35:02.376Z,11.73
2022-11-07T00:37:30.576Z,11.13
2022-11-07T00:39:58.699Z,12.40
2022-11-07T00:42:28.151Z,12.10
2022-11-07T00:44:56.283Z,10.40
2022-11-07T00:47:24.432Z,11.27
2022-11-07T00:49:52.613Z,11.67
2022-11-07T00:52:20.968Z,10.47
2022-11-07T00:54:49.172Z,11.30
2022-11-07T00:57:17.302Z,11.67
2022-11-07T00:59:46.769Z,11.17
2022-11-07T01:02:15.002Z,10.27
2022-11-07T01:05:01.040Z,11.73
2022-11-07T01:07:29.189Z,11.80
2022-11-07T01:09:57.484Z,12.60
2022-11-07T01:12:25.662Z,11.37
2022-11-07T01:14:55.159Z,10.67
2022-11-07T01:17:23.306Z,11.07
2022-11-07T01:19:51.467Z,10.27
2022-11-07T01:22:19.729Z,11.47
2022-11-07T01:24:48.252Z,9.70
2022-11-07T01:27:16.381Z,10.50
2022-11-07T01:29:44.516Z,9.93
2022-11-07T01:32:14.047Z,9.40
2022-11-07T01:34:42.185Z,9.90
2022-11-07T01:37:10.339Z,10.10
2022-11-07T01:39:38.664Z,10.93
2022-11-07T01:42:07.114Z,11.77
2022-11-07T01:44:57.067Z,10.20
2022-11-07T01:47:31.122Z,10.20
2022-11-07T01:50:00.388Z,9.07
2022-11-07T01:52:32.548Z,10.20
2022-11-07T01:55:05.928Z,9.73
2022-11-07T01:57:37.968Z,10.37
2022-11-07T02:00:09.536Z,9.90
2022-11-07T02:02:39.780Z,10.33
2022-11-07T02:05:09.960Z,8.50
2022-11-07T02:07:40.100Z,8.33
2022-11-07T02:10:09.842Z,10.13
2022-11-07T02:12:37.975Z,10.47
2022-11-07T02:15:09.559Z,10.40
2022-11-07T02:17:40.498Z,8.80
2022-11-07T02:20:09.462Z,9.60
2022-11-07T02:22:43.259Z,9.73
2022-11-07T02:25:15.264Z,9.60
2022-11-07T02:27:44.770Z,9.33
2022-11-07T02:30:17.382Z,9.80
2022-11-07T02:32:45.776Z,9.40
2022-11-07T02:35:39.022Z,9.40
2022-11-07T02:38:10.098Z,9.80
2022-11-07T02:40:40.737Z,8.03
2022-11-07T02:43:12.505Z,9.00
2022-11-07T02:45:45.096Z,9.30
2022-11-07T02:48:13.681Z,10.03
2022-11-07T02:50:42.427Z,9.13
2022-11-07T02:53:10.898Z,9.97
2022-11-07T02:55:40.529Z,9.40
2022-11-07T02:58:08.656Z,8.90
2022-11-07T03:00:36.895Z,6.60
2022-11-07T03:03:05.204Z,8.80
2022-11-07T03:05:33.442Z,8.77
2022-11-07T03:08:01.657Z,7.43
2022-11-07T03:10:29.816Z,8.10
2022-11-07T03:12:59.306Z,7.67
2022-11-07T03:15:27.503Z,7.50
2022-11-07T03:17:59.090Z,8.30
2022-11-07T03:20:27.199Z,8.47
2022-11-07T03:22:55.439Z,8.53
2022-11-07T03:25:23.568Z,7.30
2022-11-07T03:27:52.726Z,7.67
2022-11-07T03:30:22.175Z,7.30
2022-11-07T03:32:52.819Z,6.47
2022-11-07T03:35:20.995Z,7.70
2022-11-07T03:37:50.396Z,6.83
2022-11-07T03:40:18.735Z,6.60
2022-11-07T03:42:47.156Z,7.20
2022-11-07T03:45:16.796Z,8.23
2022-11-07T03:47:47.382Z,6.87
2022-11-07T03:50:17.668Z,7.33
2022-11-07T03:52:46.156Z,8.77
2022-11-07T03:55:16.285Z,9.00
2022-11-07T03:57:45.122Z,7.37
2022-11-07T04:00:15.077Z,8.50
2022-11-07T04:02:43.630Z,7.20
2022-11-07T04:05:13.473Z,7.20
2022-11-07T04:07:41.766Z,7.43
2022-11-07T04:10:10.117Z,7.27
2022-11-07T04:12:55.843Z,8.30
2022-11-07T04:15:41.843Z,7.00
2022-11-07T04:18:09.988Z,6.83
2022-11-07T04:20:39.482Z,6.53
2022-11-07T04:23:07.648Z,8.20
2022-11-07T04:25:53.643Z,7.00
2022-11-07T04:28:21.779Z,7.30
2022-11-07T04:30:49.938Z,7.10
2022-11-07T04:33:18.263Z,7.20
2022-11-07T04:35:47.727Z,8.80
2022-11-07T04:38:15.855Z,7.33
2022-11-07T04:40:43.991Z,7.47
2022-11-07T04:43:12.318Z,9.73
2022-11-07T04:45:40.664Z,7.13
2022-11-07T04:48:10.774Z,7.83
2022-11-07T04:50:39.137Z,7.57
2022-11-07T04:53:08.605Z,7.60
2022-11-07T04:55:37.140Z,8.20
2022-11-07T04:58:05.558Z,11.60
2022-11-07T05:00:33.688Z,8.93
2022-11-07T05:03:01.968Z,8.37
2022-11-07T05:05:30.176Z,12.00
2022-11-07T05:07:58.588Z,10.27
2022-11-07T05:10:29.951Z,9.00
2022-11-07T05:12:58.394Z,10.40
2022-11-07T05:15:26.538Z,8.97
2022-11-07T05:17:54.665Z,7.63
2022-11-07T05:20:29.783Z,7.13
2022-11-07T05:23:15.317Z,9.10
2022-11-07T05:25:47.732Z,5.90
2022-11-07T05:28:19.108Z,7.10
2022-11-07T05:30:50.596Z,7.90
2022-11-07T05:33:20.214Z,7.70
2022-11-07T05:35:48.355Z,7.00
2022-11-07T05:38:16.460Z,7.93
2022-11-07T05:40:46.136Z,6.27
2022-11-07T05:43:16.201Z,7.23
2022-11-07T05:45:44.620Z,6.30
2022-11-07T05:48:14.490Z,7.57
2022-11-07T05:50:42.708Z,7.43
2022-11-07T05:53:10.936Z,7.27
2022-11-07T05:55:39.693Z,6.20
2022-11-07T05:58:13.003Z,8.30
2022-11-07T06:00:42.152Z,5.70
2022-11-07T06:03:11.072Z,10.00
2022-11-07T06:05:40.010Z,7.80
2022-11-07T06:08:10.254Z,6.17
2022-11-07T06:10:39.419Z,7.20
2022-11-07T06:13:09.414Z,5.73
2022-11-07T06:15:39.623Z,6.83
2022-11-07T06:18:15.315Z,6.20
2022-11-07T06:20:43.885Z,5.47
2022-11-07T06:23:12.943Z,6.20
2022-11-07T06:25:41.273Z,5.90
2022-11-07T06:28:12.124Z,7.77
2022-11-07T06:30:41.765Z,6.20
2022-11-07T06:33:12.923Z,6.13
2022-11-07T06:35:41.490Z,5.97
2022-11-07T06:38:11.666Z,6.73
2022-11-07T06:40:42.306Z,6.00
2022-11-07T06:43:12.563Z,6.33
2022-11-07T06:45:42.960Z,5.60
2022-11-07T06:48:11.958Z,5.40
2022-11-07T06:50:40.579Z,6.53
2022-11-07T06:53:11.083Z,4.70
2022-11-07T06:55:40.500Z,5.03
2022-11-07T06:58:08.799Z,5.10
2022-11-07T07:00:38.000Z,4.80
2022-11-07T07:03:07.654Z,4.93
2022-11-07T07:05:37.104Z,4.30
2022-11-07T07:08:07.434Z,4.47
2022-11-07T07:10:39.008Z,4.47
2022-11-07T07:13:07.554Z,5.10
2022-11-07T07:15:49.925Z,4.57
2022-11-07T07:18:21.564Z,5.10
2022-11-07T07:20:50.652Z,4.50
2022-11-07T07:23:21.009Z,3.40
2022-11-07T07:25:49.654Z,4.00
2022-11-07T07:28:17.802Z,2.93
2022-11-07T07:30:50.529Z,3.70
2022-11-07T07:33:22.047Z,3.87
2022-11-07T07:35:50.175Z,3.70
2022-11-07T07:38:18.334Z,3.83
2022-11-07T07:40:46.451Z,3.67
2022-11-07T07:43:14.889Z,4.43
2022-11-07T07:45:43.356Z,3.87
2022-11-07T07:48:11.500Z,3.97
2022-11-07T07:50:40.957Z,3.03
2022-11-07T07:53:09.522Z,3.67
2022-11-07T07:55:37.731Z,3.53
2022-11-07T07:58:06.158Z,3.27
2022-11-07T08:00:34.422Z,3.43
2022-11-07T08:03:02.690Z,3.37
2022-11-07T08:05:30.921Z,4.50
2022-11-07T08:08:00.550Z,3.20
2022-11-07T08:10:41.961Z,4.00
2022-11-07T08:13:10.985Z,4.70
2022-11-07T08:15:39.445Z,3.00
2022-11-07T08:18:07.769Z,3.10
2022-11-07T08:20:35.923Z,2.80
2022-11-07T08:23:12.886Z,2.40
2022-11-07T08:25:44.699Z,3.20
2022-11-07T08:28:12.841Z,2.70
2022-11-07T08:30:40.948Z,2.50
2022-11-07T08:33:09.263Z,2.10
2022-11-07T08:35:42.213Z,2.40
2022-11-07T08:38:12.408Z,1.90
2022-11-07T08:40:41.191Z,1.80
2022-11-07T08:43:09.303Z,1.70
2022-11-07T08:45:37.489Z,2.67
2022-11-07T08:48:06.028Z,1.70
2022-11-07T08:50:34.488Z,2.30
2022-11-07T08:53:03.408Z,2.03
2022-11-07T08:55:32.972Z,2.17
2022-11-07T08:58:01.984Z,1.90
2022-11-07T09:00:31.055Z,2.40
2022-11-07T09:03:39.178Z,1.60
2022-11-07T09:05:51.072Z,2.00
2022-11-07T09:08:19.982Z,2.03
2022-11-07T09:10:49.659Z,2.67
2022-11-07T09:13:18.149Z,2.07
2022-11-07T09:15:50.928Z,1.87
2022-11-07T09:18:20.541Z,2.20
2022-11-07T09:20:48.651Z,2.03
2022-11-07T09:23:17.116Z,2.00
2022-11-07T09:25:45.922Z,1.80
2022-11-07T09:28:16.047Z,1.70
2022-11-07T09:30:44.401Z,3.83
2022-11-07T09:33:12.674Z,1.60
2022-11-07T09:35:40.955Z,1.73
2022-11-07T09:38:09.122Z,1.30
2022-11-07T09:40:44.711Z,1.60
2022-11-07T09:43:29.722Z,1.50
2022-11-07T09:46:05.740Z,1.40
2022-11-07T09:48:41.344Z,1.93
2022-11-07T09:51:16.530Z,1.33
2022-11-07T09:53:48.663Z,1.43
2022-11-07T09:56:16.898Z,1.33
2022-11-07T09:58:51.534Z,1.80
2022-11-07T10:01:22.635Z,1.30
2022-11-07T10:04:23.004Z,1.43
2022-11-07T10:06:47.209Z,1.10
2022-11-07T10:09:20.075Z,1.40
2022-11-07T10:11:56.238Z,2.33
2022-11-07T10:14:35.982Z,1.13
2022-11-07T10:17:15.375Z,1.20
2022-11-07T10:19:58.316Z,1.53
2022-11-07T10:22:38.975Z,1.43
2022-11-07T10:25:21.025Z,1.40
2022-11-07T10:27:56.043Z,1.70
2022-11-07T10:30:25.491Z,1.60
2022-11-07T10:33:00.511Z,1.13
2022-11-07T10:35:31.924Z,1.03
2022-11-07T10:38:02.035Z,1.00
2022-11-07T10:40:36.562Z,1.30
2022-11-07T10:43:09.958Z,1.10
2022-11-07T10:45:40.522Z,1.03
2022-11-07T10:48:08.762Z,1.50
2022-11-07T10:50:39.654Z,1.13
2022-11-07T10:53:09.745Z,1.30
2022-11-07T10:55:45.283Z,1.20
2022-11-07T10:58:19.702Z,1.07
2022-11-07T11:01:03.544Z,1.17
2022-11-07T11:03:43.684Z,1.30
2022-11-07T11:06:23.267Z,1.20
2022-11-07T11:08:53.594Z,1.30
2022-11-07T11:11:29.742Z,1.00
2022-11-07T11:14:11.751Z,1.33
2022-11-07T11:16:43.648Z,1.10
2022-11-07T11:19:22.549Z,1.10
2022-11-07T11:21:52.751Z,0.90
2022-11-07T11:24:26.955Z,0.90
2022-11-07T11:26:58.364Z,1.10
2022-11-07T11:29:39.195Z,1.20
2022-11-07T11:32:17.564Z,0.97
2022-11-07T11:34:54.801Z,1.67
2022-11-07T11:37:24.897Z,1.40
2022-11-07T11:40:07.368Z,1.00
2022-11-07T11:42:44.038Z,0.80
2022-11-07T11:45:18.296Z,1.00
2022-11-07T11:47:56.735Z,0.90
2022-11-07T11:50:32.316Z,1.03
2022-11-07T11:53:01.168Z,1.00
2022-11-07T11:55:39.725Z,1.33
2022-11-07T11:58:16.731Z,2.30
2022-11-07T12:00:53.011Z,0.93
2022-11-07T12:03:44.902Z,0.80
2022-11-07T12:06:16.431Z,1.00
2022-11-07T12:09:01.332Z,0.93
2022-11-07T12:11:38.289Z,0.90
2022-11-07T12:14:21.493Z,0.90
2022-11-07T12:16:55.815Z,1.07
2022-11-07T12:19:30.356Z,1.03
2022-11-07T12:22:08.007Z,0.70
2022-11-07T12:24:45.852Z,1.10
2022-11-07T12:27:26.793Z,0.93
2022-11-07T12:30:05.507Z,1.23
2022-11-07T12:32:46.945Z,0.90
2022-11-07T12:35:30.204Z,0.90
2022-11-07T12:38:11.017Z,1.13
2022-11-07T12:40:51.092Z,0.83
2022-11-07T12:43:33.369Z,0.80
2022-11-07T12:46:09.844Z,1.00
2022-11-07T12:48:57.480Z,0.80
2022-11-07T12:51:39.466Z,1.00
2022-11-07T12:54:29.961Z,0.80
2022-11-07T12:56:58.742Z,0.90
2022-11-07T12:59:29.287Z,0.70
2022-11-07T13:02:05.073Z,0.77
2022-11-07T13:04:39.852Z,1.00
2022-11-07T13:07:19.944Z,1.37
2022-11-07T13:09:54.363Z,0.93
2022-11-07T13:12:29.690Z,1.00
2022-11-07T13:14:58.243Z,1.10
2022-11-07T13:17:30.478Z,1.27
2022-11-07T13:20:00.551Z,0.97
2022-11-07T13:22:38.304Z,0.87
2022-11-07T13:25:24.816Z,1.20
2022-11-07T13:28:07.800Z,1.10
2022-11-07T13:30:37.965Z,1.00
2022-11-07T13:33:09.053Z,1.27
2022-11-07T13:35:38.556Z,1.00
2022-11-07T13:38:13.853Z,1.10
2022-11-07T13:40:47.466Z,1.27
2022-11-07T13:43:19.276Z,0.90
2022-11-07T13:45:50.751Z,1.00
2022-11-07T13:48:22.968Z,0.90
2022-11-07T13:50:58.849Z,0.93
2022-11-07T13:53:34.034Z,0.80
2022-11-07T13:56:08.857Z,1.20
2022-11-07T13:58:40.230Z,1.00
2022-11-07T14:01:11.690Z,0.90
2022-11-07T14:03:40.613Z,1.00
2022-11-07T14:06:13.009Z,1.10
2022-11-07T14:08:46.812Z,1.30
2022-11-07T14:11:18.309Z,2.30
2022-11-07T14:13:50.809Z,2.50
2022-11-07T14:16:22.528Z,1.23
2022-11-07T14:18:56.767Z,1.00
2022-11-07T14:21:28.416Z,1.00
2022-11-07T14:23:58.620Z,1.10
2022-11-07T14:26:28.288Z,1.00
2022-11-07T14:28:57.716Z,0.80
2022-11-07T14:31:28.240Z,0.90
2022-11-07T14:33:58.650Z,1.37
2022-11-07T14:36:27.828Z,0.93
2022-11-07T14:39:01.367Z,1.07
2022-11-07T14:41:30.142Z,2.57
2022-11-07T14:44:02.896Z,3.57
2022-11-07T14:46:31.821Z,29.80
2022-11-07T14:49:00.333Z,15.53
2022-11-07T14:51:30.116Z,32.80
2022-11-07T14:54:05.051Z,94.77
2022-11-07T14:56:39.328Z,41.07
2022-11-07T14:59:12.499Z,110.67
2022-11-07T15:01:53.355Z,7.87
2022-11-07T15:04:29.989Z,4.27
2022-11-07T15:06:58.535Z,2.43
2022-11-07T15:09:35.620Z,40.33
2022-11-07T15:12:13.718Z,21.03
2022-11-07T15:14:41.948Z,119.37
2022-11-07T15:17:22.436Z,95.67
2022-11-07T15:19:57.524Z,177.67
2022-11-07T15:22:29.391Z,26.00
2022-11-07T15:24:58.888Z,5.63
2022-11-07T15:27:33.382Z,1.60
2022-11-07T15:30:03.276Z,1.33
2022-11-07T15:32:43.771Z,1.10
2022-11-07T15:35:42.360Z,1.50
2022-11-07T15:38:05.910Z,1.30
2022-11-07T15:40:35.402Z,1.20
2022-11-07T15:43:03.542Z,2.07
2022-11-07T15:45:31.868Z,3.27
2022-11-07T15:47:59.998Z,1.80
2022-11-07T15:50:28.180Z,2.50
2022-11-07T15:52:56.323Z,2.30
2022-11-07T15:55:24.831Z,1.47
2022-11-07T15:57:55.246Z,1.10
2022-11-07T16:00:25.346Z,1.63
2022-11-07T16:02:54.144Z,1.00
2022-11-07T16:05:22.476Z,1.53
2022-11-07T16:07:50.850Z,1.33
2022-11-07T16:10:21.659Z,1.50
2022-11-07T16:12:50.784Z,1.40
2022-11-07T16:15:23.464Z,2.70
2022-11-07T16:17:51.970Z,1.47
2022-11-07T16:20:21.916Z,4.30
2022-11-07T16:22:51.153Z,1.70
2022-11-07T16:25:22.479Z,1.47
2022-11-07T16:27:53.313Z,1.87
2022-11-07T16:30:23.584Z,1.20
2022-11-07T16:32:52.059Z,1.40
2022-11-07T16:35:20.179Z,1.00
2022-11-07T16:37:48.460Z,1.30
2022-11-07T16:40:18.841Z,1.30
2022-11-07T16:42:47.411Z,1.10
2022-11-07T16:45:17.894Z,1.40
2022-11-07T16:47:48.133Z,1.20
2022-11-07T16:50:17.891Z,1.83
2022-11-07T16:52:46.140Z,1.50
2022-11-07T16:55:19.372Z,2.27
2022-11-07T16:57:48.046Z,1.27
2022-11-07T17:00:18.464Z,1.53
2022-11-07T17:02:48.568Z,1.27
2022-11-07T17:05:16.942Z,1.73
2022-11-07T17:07:45.350Z,1.30
2022-11-07T17:10:17.667Z,1.20
2022-11-07T17:12:45.989Z,1.20
2022-11-07T17:15:14.144Z,1.80
2022-11-07T17:17:42.371Z,1.63
2022-11-07T17:20:48.524Z,1.20
2022-11-07T17:23:09.746Z,1.10
2022-11-07T17:25:38.478Z,1.13
2022-11-07T17:28:06.740Z,1.03
2022-11-07T17:30:34.908Z,1.60
2022-11-07T17:33:04.187Z,1.30
2022-11-07T17:35:34.292Z,1.07
2022-11-07T17:38:02.454Z,1.10
2022-11-07T17:40:32.131Z,1.00
2022-11-07T17:43:01.271Z,1.90
2022-11-07T17:45:29.440Z,1.00
2022-11-07T17:47:57.646Z,1.50
2022-11-07T17:50:25.852Z,0.83
2022-11-07T17:52:55.376Z,1.40
2022-11-07T17:55:24.643Z,1.23
2022-11-07T17:57:52.871Z,1.17
2022-11-07T18:00:23.485Z,0.90
2022-11-07T18:02:53.202Z,1.00
2022-11-07T18:05:27.506Z,1.00
2022-11-07T18:07:59.718Z,1.30
2022-11-07T18:10:28.109Z,1.70
2022-11-07T18:12:57.512Z,1.30
2022-11-07T18:15:25.711Z,1.23
2022-11-07T18:17:53.843Z,1.30
2022-11-07T18:20:21.966Z,1.10
2022-11-07T18:22:50.071Z,1.40
2022-11-07T18:25:19.684Z,1.00
2022-11-07T18:27:49.243Z,1.00
2022-11-07T18:30:17.402Z,1.30
2022-11-07T18:32:45.553Z,1.10
2022-11-07T18:35:13.687Z,1.47
2022-11-07T18:37:41.857Z,1.10
2022-11-07T18:40:11.553Z,1.20
2022-11-07T18:42:43.707Z,1.13
2022-11-07T18:45:12.011Z,1.30
2022-11-07T18:47:40.373Z,1.50
2022-11-07T18:50:09.151Z,1.20
2022-11-07T18:52:37.283Z,1.00
2022-11-07T18:55:06.998Z,1.30
2022-11-07T18:57:35.147Z,1.37
2022-11-07T19:00:10.657Z,2.27
2022-11-07T19:02:41.561Z,1.37
2022-11-07T19:05:09.936Z,1.37
2022-11-07T19:07:39.781Z,1.50
2022-11-07T19:10:08.835Z,1.13
2022-11-07T19:12:37.165Z,1.43
2022-11-07T19:15:08.921Z,1.90
2022-11-07T19:17:37.276Z,1.23
2022-11-07T19:20:06.656Z,0.93
2022-11-07T19:22:34.826Z,1.03
2022-11-07T19:25:02.960Z,1.37
2022-11-07T19:27:32.907Z,9.30
2022-11-07T19:30:01.083Z,2.30
2022-11-07T19:32:30.600Z,2.13
2022-11-07T19:34:59.152Z,1.00
2022-11-07T19:37:27.306Z,1.20
2022-11-07T19:39:55.446Z,1.27
2022-11-07T19:42:28.047Z,1.50
2022-11-07T19:44:56.844Z,1.40
2022-11-07T19:47:25.082Z,1.47
2022-11-07T19:49:54.543Z,1.30
2022-11-07T19:52:22.740Z,2.03
2022-11-07T19:54:51.774Z,1.70
2022-11-07T19:57:20.045Z,2.17
2022-11-07T19:59:48.270Z,1.90
2022-11-07T20:02:32.449Z,1.93
2022-11-07T20:05:03.385Z,2.30
2022-11-07T20:07:31.560Z,1.90
2022-11-07T20:10:01.228Z,1.40
2022-11-07T20:12:29.395Z,1.53
2022-11-07T20:14:57.880Z,1.37
2022-11-07T20:17:26.240Z,1.60
2022-11-07T20:19:54.391Z,1.70
2022-11-07T20:22:23.877Z,3.23
2022-11-07T20:24:52.041Z,3.33
2022-11-07T20:27:20.294Z,2.87
2022-11-07T20:29:48.522Z,1.57
2022-11-07T20:32:17.060Z,1.77
2022-11-07T20:34:47.796Z,2.03
2022-11-07T20:37:20.961Z,1.50
2022-11-07T20:39:51.662Z,1.40
2022-11-07T20:42:19.855Z,1.30
2022-11-07T20:44:49.746Z,1.20
2022-11-07T20:47:18.009Z,1.50
2022-11-07T20:49:46.160Z,1.60
2022-11-07T20:52:14.302Z,1.20
2022-11-07T20:54:42.443Z,1.33
2022-11-07T20:57:11.982Z,1.93
2022-11-07T20:59:41.237Z,1.30
2022-11-07T21:02:11.755Z,1.83
2022-11-07T21:04:56.288Z,1.30
2022-11-07T21:07:28.060Z,1.80
2022-11-07T21:09:56.194Z,1.53
2022-11-07T21:12:25.691Z,2.37
2022-11-07T21:14:54.654Z,1.50
2022-11-07T21:17:23.288Z,1.73
2022-11-07T21:19:51.504Z,1.60
2022-11-07T21:22:19.651Z,2.03
2022-11-07T21:24:47.777Z,3.77
2022-11-07T21:27:15.925Z,2.53
2022-11-07T21:29:45.465Z,4.07
2022-11-07T21:32:13.612Z,3.43
2022-11-07T21:34:42.702Z,2.27
2022-11-07T21:37:10.900Z,2.17
2022-11-07T21:39:39.995Z,1.80
2022-11-07T21:42:08.144Z,1.80
2022-11-07T21:44:36.282Z,1.87
2022-11-07T21:47:05.836Z,2.17
2022-11-07T21:49:34.007Z,1.97
2022-11-07T21:52:02.197Z,1.10
2022-11-07T21:54:30.568Z,1.20
2022-11-07T21:57:00.234Z,1.50
2022-11-07T21:59:28.687Z,1.10
2022-11-07T22:01:56.960Z,1.80
2022-11-07T22:04:26.528Z,1.60
2022-11-07T22:06:55.571Z,1.70
2022-11-07T22:09:23.675Z,1.30
2022-11-07T22:11:51.800Z,1.30
2022-11-07T22:14:22.039Z,2.10
2022-11-07T22:16:51.062Z,1.20
2022-11-07T22:19:19.687Z,1.20
2022-11-07T22:21:49.860Z,1.00
2022-11-07T22:24:18.012Z,1.77
2022-11-07T22:26:46.202Z,1.43
2022-11-07T22:29:14.323Z,1.43
2022-11-07T22:31:43.730Z,3.00
2022-11-07T22:34:11.843Z,1.27
2022-11-07T22:36:39.978Z,1.40
2022-11-07T22:39:09.962Z,1.20
2022-11-07T22:41:38.111Z,1.47
2022-11-07T22:44:06.249Z,1.00
2022-11-07T22:46:34.516Z,1.30
2022-11-07T22:49:03.212Z,1.53
2022-11-07T22:51:33.094Z,1.13
2022-11-07T22:54:03.004Z,1.10
2022-11-07T22:56:33.523Z,1.20
2022-11-07T22:59:01.800Z,1.20
2022-11-07T23:01:32.189Z,1.47
2022-11-07T23:04:00.407Z,1.43
2022-11-07T23:06:29.615Z,1.40
2022-11-07T23:08:59.413Z,1.43
2022-11-07T23:14:20.491Z,1.40
2022-11-07T23:16:50.657Z,1.30
2022-11-07T23:19:22.059Z,1.90
2022-11-07T23:21:50.983Z,1.63
2022-11-07T23:24:20.479Z,1.20
2022-11-07T23:26:48.807Z,1.20
2022-11-07T23:29:20.627Z,1.57
2022-11-07T23:31:50.413Z,1.20
2022-11-07T23:34:20.542Z,1.40
2022-11-07T23:36:51.297Z,1.33
2022-11-07T23:39:21.743Z,1.83
2022-11-07T23:41:49.956Z,1.13
2022-11-07T23:44:19.626Z,1.80
2022-11-07T23:47:05.694Z,1.37
2022-11-07T23:49:51.404Z,1.80
2022-11-07T23:52:19.696Z,1.10
2022-11-07T23:55:05.470Z,2.37
2022-11-07T23:57:34.849Z,1.40
